createdAt,value
2019-03-09T00:01:39.793Z,3.50
2019-03-09T00:04:07.089Z,3.70
2019-03-09T00:06:34.329Z,3.70
2019-03-09T00:09:01.569Z,3.67
2019-03-09T00:11:30.415Z,3.73
2019-03-09T00:13:57.656Z,3.63
2019-03-09T00:16:24.920Z,4.40
2019-03-09T00:18:52.253Z,3.40
2019-03-09T00:21:19.539Z,3.60
2019-03-09T00:24:06.367Z,2.93
2019-03-09T00:26:55.944Z,2.77
2019-03-09T00:29:42.716Z,2.20
2019-03-09T00:32:13.231Z,2.00
2019-03-09T00:34:41.296Z,2.17
2019-03-09T00:37:08.583Z,2.73
2019-03-09T00:39:35.824Z,2.67
2019-03-09T00:42:03.486Z,2.30
2019-03-09T00:44:30.775Z,2.60
2019-03-09T00:46:58.053Z,2.17
2019-03-09T00:49:25.519Z,2.47
2019-03-09T00:51:52.806Z,2.53
2019-03-09T00:54:20.106Z,2.40
2019-03-09T00:56:47.372Z,2.80
2019-03-09T00:59:14.684Z,3.00
2019-03-09T01:01:41.954Z,2.77
2019-03-09T01:04:09.242Z,3.07
2019-03-09T01:06:36.494Z,3.47
2019-03-09T01:09:06.711Z,3.17
2019-03-09T01:11:34.000Z,3.17
2019-03-09T01:14:01.254Z,3.53
2019-03-09T01:16:28.699Z,3.90
2019-03-09T01:18:55.997Z,3.90
2019-03-09T01:21:23.238Z,3.57
2019-03-09T01:23:50.478Z,4.00
2019-03-09T01:26:17.860Z,4.23
2019-03-09T01:28:45.096Z,4.00
2019-03-09T01:31:12.326Z,4.40
2019-03-09T01:33:39.696Z,3.97
2019-03-09T01:36:06.945Z,4.30
2019-03-09T01:38:34.187Z,4.60
2019-03-09T01:41:01.473Z,5.47
2019-03-09T01:43:28.717Z,5.63
2019-03-09T01:45:55.951Z,5.70
2019-03-09T01:48:23.240Z,5.83
2019-03-09T01:50:50.460Z,5.60
2019-03-09T01:53:20.116Z,5.97
2019-03-09T01:55:47.482Z,6.40
2019-03-09T01:58:15.080Z,6.13
2019-03-09T02:00:42.497Z,6.13
2019-03-09T02:03:09.753Z,5.40
2019-03-09T02:05:39.169Z,6.20
2019-03-09T02:08:06.442Z,5.80
2019-03-09T02:10:33.814Z,6.53
2019-03-09T02:13:01.068Z,7.20
2019-03-09T02:15:28.338Z,6.63
2019-03-09T02:18:00.139Z,6.33
2019-03-09T02:20:27.412Z,4.87
2019-03-09T02:22:55.053Z,4.43
2019-03-09T02:25:22.318Z,4.47
2019-03-09T02:27:49.571Z,3.70
2019-03-09T02:30:18.073Z,3.60
2019-03-09T02:32:45.495Z,3.10
2019-03-09T02:35:12.883Z,3.17
2019-03-09T02:37:41.118Z,2.70
2019-03-09T02:40:27.013Z,2.97
2019-03-09T02:42:54.260Z,2.93
2019-03-09T02:45:22.256Z,2.90
2019-03-09T02:47:49.548Z,3.13
2019-03-09T02:50:16.921Z,3.10
2019-03-09T02:52:44.206Z,3.40
2019-03-09T02:55:11.876Z,3.50
2019-03-09T02:57:39.237Z,2.80
2019-03-09T03:00:08.280Z,2.50
2019-03-09T03:02:38.167Z,3.90
2019-03-09T03:05:05.806Z,2.77
2019-03-09T03:07:33.094Z,2.67
2019-03-09T03:10:00.442Z,3.23
2019-03-09T03:12:27.766Z,3.93
2019-03-09T03:14:54.992Z,2.87
2019-03-09T03:17:22.234Z,3.03
2019-03-09T03:19:49.500Z,3.47
2019-03-09T03:22:16.777Z,3.17
2019-03-09T03:24:44.088Z,3.23
2019-03-09T03:27:11.342Z,3.40
2019-03-09T03:29:38.624Z,2.87
2019-03-09T03:32:06.011Z,2.77
2019-03-09T03:34:33.297Z,3.53
2019-03-09T03:37:00.663Z,3.90
2019-03-09T03:39:28.901Z,2.70
2019-03-09T03:41:56.157Z,3.60
2019-03-09T03:44:23.451Z,2.97
2019-03-09T03:46:50.710Z,2.50
2019-03-09T03:49:17.953Z,2.93
2019-03-09T03:51:45.331Z,3.37
2019-03-09T03:54:12.617Z,3.17
2019-03-09T03:56:39.988Z,3.80
2019-03-09T03:59:07.358Z,2.90
2019-03-09T04:01:34.670Z,2.90
2019-03-09T04:04:01.946Z,2.77
2019-03-09T04:06:29.317Z,2.97
2019-03-09T04:08:56.750Z,3.20
2019-03-09T04:11:24.069Z,2.63
2019-03-09T04:13:51.315Z,3.17
2019-03-09T04:16:18.572Z,3.67
2019-03-09T04:18:45.862Z,3.77
2019-03-09T04:21:13.193Z,2.73
2019-03-09T04:23:40.420Z,3.77
2019-03-09T04:26:07.688Z,3.50
2019-03-09T04:28:35.001Z,3.77
2019-03-09T04:31:02.246Z,3.30
2019-03-09T04:33:29.700Z,3.43
2019-03-09T04:36:06.733Z,3.73
2019-03-09T04:38:34.325Z,4.67
2019-03-09T04:41:01.630Z,4.53
2019-03-09T04:43:28.953Z,4.17
2019-03-09T04:45:56.262Z,4.23
2019-03-09T04:48:23.495Z,4.13
2019-03-09T04:50:50.875Z,3.33
2019-03-09T04:53:18.266Z,4.27
2019-03-09T04:55:46.195Z,3.83
2019-03-09T04:58:13.446Z,3.57
2019-03-09T05:00:40.728Z,4.40
2019-03-09T05:03:08.015Z,3.77
2019-03-09T05:05:35.299Z,3.87
2019-03-09T05:08:56.668Z,4.00
2019-03-09T05:11:28.027Z,3.70
2019-03-09T05:14:02.670Z,4.47
2019-03-09T05:16:29.938Z,3.60
2019-03-09T05:18:57.176Z,4.07
2019-03-09T05:21:24.477Z,3.60
2019-03-09T05:23:51.730Z,4.60
2019-03-09T05:26:18.952Z,4.87
2019-03-09T05:28:46.251Z,4.20
2019-03-09T05:31:13.525Z,3.93
2019-03-09T05:33:40.797Z,4.13
2019-03-09T05:36:08.146Z,4.73
2019-03-09T05:38:35.387Z,3.97
2019-03-09T05:41:02.628Z,4.37
2019-03-09T05:43:29.916Z,3.90
2019-03-09T05:45:57.336Z,4.03
2019-03-09T05:48:24.598Z,4.47
2019-03-09T05:50:51.941Z,3.90
2019-03-09T05:53:20.866Z,4.03
2019-03-09T05:55:48.224Z,3.93
2019-03-09T05:58:15.527Z,4.20
2019-03-09T06:00:43.198Z,4.10
2019-03-09T06:03:10.439Z,4.07
2019-03-09T06:05:45.767Z,4.40
2019-03-09T06:08:13.010Z,3.93
2019-03-09T06:10:40.307Z,4.13
2019-03-09T06:13:07.541Z,3.27
2019-03-09T06:15:34.875Z,3.40
2019-03-09T06:18:02.135Z,4.13
2019-03-09T06:20:29.406Z,3.77
2019-03-09T06:22:56.682Z,3.37
2019-03-09T06:25:23.948Z,3.80
2019-03-09T06:27:51.226Z,3.73
2019-03-09T06:30:18.493Z,3.80
2019-03-09T06:33:23.280Z,3.80
2019-03-09T06:35:56.983Z,3.77
2019-03-09T06:38:49.785Z,3.20
2019-03-09T06:41:21.205Z,3.87
2019-03-09T06:43:48.452Z,3.20
2019-03-09T06:46:15.721Z,3.87
2019-03-09T06:48:43.006Z,3.20
2019-03-09T06:51:10.250Z,3.60
2019-03-09T06:53:37.555Z,4.90
2019-03-09T06:56:04.840Z,3.60
2019-03-09T06:58:35.561Z,3.43
2019-03-09T07:01:21.517Z,5.57
2019-03-09T07:03:48.954Z,4.87
2019-03-09T07:06:16.292Z,4.60
2019-03-09T07:08:43.947Z,3.87
2019-03-09T07:11:12.418Z,3.97
2019-03-09T07:13:40.040Z,4.20
2019-03-09T07:16:07.385Z,3.87
2019-03-09T07:18:38.101Z,3.80
2019-03-09T07:21:05.413Z,4.90
2019-03-09T07:23:32.712Z,3.20
2019-03-09T07:26:01.105Z,3.90
2019-03-09T07:28:28.382Z,3.50
2019-03-09T07:30:57.208Z,4.63
2019-03-09T07:33:24.444Z,4.03
2019-03-09T07:35:51.735Z,4.20
2019-03-09T07:38:19.047Z,4.93
2019-03-09T07:40:46.281Z,3.73
2019-03-09T07:43:15.819Z,4.27
2019-03-09T07:45:43.093Z,4.23
2019-03-09T07:48:10.355Z,5.13
2019-03-09T07:50:37.757Z,4.10
2019-03-09T07:53:04.995Z,4.40
2019-03-09T07:55:32.290Z,3.73
2019-03-09T07:58:04.142Z,4.50
2019-03-09T08:00:31.489Z,3.97
2019-03-09T08:02:59.278Z,4.70
2019-03-09T08:05:26.538Z,4.13
2019-03-09T08:07:53.807Z,4.23
2019-03-09T08:10:21.294Z,3.57
2019-03-09T08:12:48.560Z,3.60
2019-03-09T08:15:16.578Z,4.77
2019-03-09T08:17:43.920Z,4.77
2019-03-09T08:20:11.392Z,3.87
2019-03-09T08:22:38.666Z,3.40
2019-03-09T08:25:06.975Z,3.73
2019-03-09T08:27:34.383Z,4.00
2019-03-09T08:30:02.565Z,3.67
2019-03-09T08:32:30.093Z,4.17
2019-03-09T08:34:57.415Z,4.43
2019-03-09T08:37:26.390Z,3.97
2019-03-09T08:39:53.706Z,3.77
2019-03-09T08:42:20.961Z,3.70
2019-03-09T08:44:48.269Z,3.20
2019-03-09T08:47:15.784Z,3.63
2019-03-09T08:49:43.154Z,4.23
2019-03-09T08:52:10.463Z,4.40
2019-03-09T08:54:37.736Z,3.17
2019-03-09T08:57:05.090Z,3.77
2019-03-09T08:59:32.361Z,4.60
2019-03-09T09:01:59.829Z,3.37
2019-03-09T09:04:27.177Z,3.67
2019-03-09T09:06:54.811Z,2.87
2019-03-09T09:09:22.122Z,3.47
2019-03-09T09:11:49.384Z,3.33
2019-03-09T09:14:16.696Z,3.47
2019-03-09T09:16:43.994Z,3.80
2019-03-09T09:19:11.276Z,3.93
2019-03-09T09:21:38.534Z,3.67
2019-03-09T09:24:05.844Z,3.40
2019-03-09T09:26:33.101Z,3.43
2019-03-09T09:29:00.469Z,3.47
2019-03-09T09:31:27.821Z,4.07
2019-03-09T09:33:55.075Z,3.40
2019-03-09T09:36:22.380Z,3.67
2019-03-09T09:38:49.714Z,3.40
2019-03-09T09:41:17.001Z,3.70
2019-03-09T09:43:44.454Z,3.17
2019-03-09T09:46:11.845Z,3.40
2019-03-09T09:48:39.301Z,3.00
2019-03-09T09:51:06.566Z,3.37
2019-03-09T09:53:33.993Z,3.10
2019-03-09T09:56:01.294Z,3.87
2019-03-09T09:58:28.599Z,4.27
2019-03-09T10:00:55.848Z,3.57
2019-03-09T10:03:23.123Z,3.27
2019-03-09T10:05:50.426Z,2.77
2019-03-09T10:08:17.735Z,3.77
2019-03-09T10:10:45.023Z,3.30
2019-03-09T10:13:12.352Z,3.43
2019-03-09T10:15:39.683Z,4.20
2019-03-09T10:18:06.990Z,3.43
2019-03-09T10:20:34.327Z,3.63
2019-03-09T10:23:04.663Z,3.67
2019-03-09T10:25:31.757Z,3.57
2019-03-09T10:27:59.279Z,3.37
2019-03-09T10:30:26.608Z,3.63
2019-03-09T10:32:53.869Z,3.90
2019-03-09T10:35:21.189Z,4.27
2019-03-09T10:37:48.710Z,3.60
2019-03-09T10:40:16.485Z,3.53
2019-03-09T10:42:43.893Z,4.17
2019-03-09T10:45:11.283Z,3.53
2019-03-09T10:47:38.536Z,2.80
2019-03-09T10:50:08.178Z,3.37
2019-03-09T10:52:35.449Z,3.20
2019-03-09T10:55:03.437Z,2.90
2019-03-09T10:57:30.760Z,3.23
2019-03-09T10:59:58.038Z,4.00
2019-03-09T11:02:25.330Z,2.63
2019-03-09T11:04:52.723Z,2.73
2019-03-09T11:07:20.076Z,2.40
2019-03-09T11:09:47.350Z,3.13
2019-03-09T11:12:14.727Z,2.50
2019-03-09T11:14:42.111Z,3.43
2019-03-09T11:17:09.406Z,3.20
2019-03-09T11:19:36.726Z,3.37
2019-03-09T11:22:04.027Z,2.80
2019-03-09T11:24:31.323Z,2.80
2019-03-09T11:26:58.635Z,2.80
2019-03-09T11:29:28.188Z,3.07
2019-03-09T11:31:55.125Z,3.37
2019-03-09T11:34:22.375Z,3.50
2019-03-09T11:36:49.748Z,3.20
2019-03-09T11:39:17.016Z,3.17
2019-03-09T11:41:44.390Z,3.13
2019-03-09T11:44:11.696Z,2.70
2019-03-09T11:46:41.368Z,2.67
2019-03-09T11:49:08.603Z,3.27
2019-03-09T11:51:35.947Z,3.20
2019-03-09T11:54:03.220Z,3.70
2019-03-09T11:56:30.520Z,3.67
2019-03-09T11:58:57.809Z,3.00
2019-03-09T12:01:25.069Z,2.93
2019-03-09T12:03:52.382Z,2.70
2019-03-09T12:06:19.696Z,3.30
2019-03-09T12:08:46.952Z,3.20
2019-03-09T12:11:14.255Z,2.87
2019-03-09T12:13:41.536Z,2.50
2019-03-09T12:16:08.870Z,2.80
2019-03-09T12:18:36.181Z,2.93
2019-03-09T12:21:03.433Z,3.43
2019-03-09T12:23:30.708Z,3.70
2019-03-09T12:25:58.015Z,4.13
2019-03-09T12:28:25.285Z,3.90
2019-03-09T12:30:52.756Z,4.07
2019-03-09T12:33:20.093Z,3.77
2019-03-09T12:35:47.391Z,3.37
2019-03-09T12:38:14.747Z,3.43
2019-03-09T12:40:42.147Z,4.10
2019-03-09T12:43:09.535Z,3.63
2019-03-09T12:45:37.019Z,3.30
2019-03-09T12:48:04.314Z,3.37
2019-03-09T12:50:31.658Z,3.30
2019-03-09T12:52:58.952Z,2.93
2019-03-09T12:55:26.210Z,3.60
2019-03-09T12:57:53.531Z,3.47
2019-03-09T13:00:20.817Z,3.77
2019-03-09T13:02:48.340Z,3.60
2019-03-09T13:05:16.007Z,3.30
2019-03-09T13:07:43.316Z,3.67
2019-03-09T13:10:11.197Z,3.90
2019-03-09T13:12:38.473Z,4.00
2019-03-09T13:15:06.351Z,3.53
2019-03-09T13:17:36.194Z,3.63
2019-03-09T13:20:03.846Z,3.73
2019-03-09T13:22:31.152Z,3.83
2019-03-09T13:24:58.839Z,3.87
2019-03-09T13:27:26.467Z,4.47
2019-03-09T13:29:54.022Z,4.30
2019-03-09T13:32:21.310Z,4.33
2019-03-09T13:34:48.809Z,4.13
2019-03-09T13:37:16.090Z,4.43
2019-03-09T13:39:43.382Z,4.10
2019-03-09T13:42:10.663Z,4.67
2019-03-09T13:44:37.943Z,4.50
2019-03-09T13:47:05.179Z,3.60
2019-03-09T13:49:32.441Z,3.47
2019-03-09T13:51:59.710Z,3.13
2019-03-09T13:54:26.991Z,3.63
2019-03-09T13:56:54.245Z,2.87
2019-03-09T13:59:21.496Z,3.40
2019-03-09T14:01:48.780Z,2.80
2019-03-09T14:04:16.340Z,3.40
2019-03-09T14:06:43.576Z,3.30
2019-03-09T14:09:10.926Z,3.37
2019-03-09T14:11:38.659Z,3.43
2019-03-09T14:14:05.945Z,3.30
2019-03-09T14:16:33.212Z,4.50
2019-03-09T14:19:02.084Z,3.20
2019-03-09T14:21:29.407Z,3.40
2019-03-09T14:23:56.778Z,3.93
2019-03-09T14:26:25.536Z,4.13
2019-03-09T14:28:52.826Z,5.10
2019-03-09T14:31:20.115Z,5.70
2019-03-09T14:33:47.436Z,5.07
2019-03-09T14:36:14.718Z,4.57
2019-03-09T14:38:42.087Z,4.33
2019-03-09T14:41:09.369Z,4.77
2019-03-09T14:43:36.608Z,5.37
2019-03-09T14:46:03.908Z,5.30
2019-03-09T14:48:31.227Z,4.70
2019-03-09T14:50:58.490Z,3.03
2019-03-09T14:53:25.745Z,1.83
2019-03-09T14:55:53.026Z,1.90
2019-03-09T14:58:20.564Z,2.40
2019-03-09T15:00:47.865Z,3.40
2019-03-09T15:03:15.117Z,3.30
2019-03-09T15:05:42.383Z,2.70
2019-03-09T15:08:09.941Z,2.40
2019-03-09T15:10:37.228Z,2.13
2019-03-09T15:13:04.482Z,2.40
2019-03-09T15:15:31.788Z,2.27
2019-03-09T15:17:59.136Z,3.47
2019-03-09T15:20:26.371Z,2.20
2019-03-09T15:22:53.619Z,2.30
2019-03-09T15:25:20.924Z,2.90
2019-03-09T15:27:48.198Z,2.93
2019-03-09T15:30:15.656Z,2.77
2019-03-09T15:32:42.971Z,2.00
2019-03-09T15:35:10.304Z,2.50
2019-03-09T15:37:37.589Z,2.50
2019-03-09T15:40:05.013Z,1.93
2019-03-09T15:42:32.313Z,1.30
2019-03-09T15:44:59.616Z,1.80
2019-03-09T15:47:26.871Z,1.60
2019-03-09T15:49:54.126Z,1.63
2019-03-09T15:52:21.586Z,1.57
2019-03-09T15:54:48.868Z,1.57
2019-03-09T15:57:16.119Z,1.87
2019-03-09T15:59:43.424Z,1.63
2019-03-09T16:02:11.011Z,1.97
2019-03-09T16:04:38.252Z,1.73
2019-03-09T16:07:06.640Z,1.70
2019-03-09T16:09:34.197Z,2.17
2019-03-09T16:12:01.465Z,2.80
2019-03-09T16:14:28.722Z,3.00
2019-03-09T16:16:55.960Z,2.20
2019-03-09T16:19:23.445Z,1.90
2019-03-09T16:21:50.725Z,2.00
2019-03-09T16:24:18.011Z,1.80
2019-03-09T16:26:45.422Z,1.50
2019-03-09T16:29:12.666Z,2.10
2019-03-09T16:31:41.993Z,1.80
2019-03-09T16:34:09.251Z,1.90
2019-03-09T16:36:36.526Z,1.57
2019-03-09T16:39:07.872Z,2.00
2019-03-09T16:41:37.860Z,1.93
2019-03-09T16:44:05.215Z,1.87
2019-03-09T16:46:32.476Z,1.80
2019-03-09T16:48:59.756Z,2.00
2019-03-09T16:51:26.979Z,1.80
2019-03-09T16:53:54.233Z,1.83
2019-03-09T16:56:21.478Z,2.33
2019-03-09T16:58:48.736Z,1.87
2019-03-09T17:01:15.974Z,1.60
2019-03-09T17:03:43.286Z,2.03
2019-03-09T17:06:10.555Z,2.33
2019-03-09T17:08:37.818Z,1.90
2019-03-09T17:11:05.085Z,1.83
2019-03-09T17:13:32.399Z,1.87
2019-03-09T17:15:59.680Z,2.10
2019-03-09T17:18:26.959Z,1.80
2019-03-09T17:20:56.682Z,1.60
2019-03-09T17:23:23.618Z,1.83
2019-03-09T17:25:50.883Z,2.40
2019-03-09T17:28:18.212Z,2.43
2019-03-09T17:30:45.447Z,2.23
2019-03-09T17:33:12.673Z,1.97
2019-03-09T17:35:41.299Z,2.00
2019-03-09T17:38:08.581Z,2.63
2019-03-09T17:40:36.894Z,2.00
2019-03-09T17:43:04.238Z,1.73
2019-03-09T17:45:32.013Z,2.50
2019-03-09T17:47:59.308Z,2.00
2019-03-09T17:50:26.675Z,1.93
2019-03-09T17:52:53.918Z,2.07
2019-03-09T17:55:21.312Z,1.70
2019-03-09T17:57:48.525Z,2.10
2019-03-09T18:00:18.219Z,2.33
2019-03-09T18:02:45.484Z,2.60
2019-03-09T18:05:12.904Z,2.17
2019-03-09T18:07:40.223Z,2.20
2019-03-09T18:10:14.006Z,1.93
2019-03-09T18:12:41.263Z,2.30
2019-03-09T18:15:11.373Z,1.73
2019-03-09T18:17:38.653Z,2.03
2019-03-09T18:20:06.303Z,2.17
2019-03-09T18:22:33.669Z,3.27
2019-03-09T18:25:00.951Z,1.93
2019-03-09T18:27:28.564Z,2.13
2019-03-09T18:29:56.873Z,2.40
2019-03-09T18:32:24.277Z,2.87
2019-03-09T18:34:51.535Z,2.57
2019-03-09T18:37:18.776Z,2.30
2019-03-09T18:39:46.074Z,1.93
2019-03-09T18:42:13.307Z,2.40
2019-03-09T18:44:40.583Z,3.17
2019-03-09T18:47:07.818Z,2.73
2019-03-09T18:49:37.586Z,2.20
2019-03-09T18:52:04.818Z,2.70
2019-03-09T18:54:32.084Z,2.40
2019-03-09T18:56:59.379Z,2.80
2019-03-09T18:59:26.615Z,3.10
2019-03-09T19:01:53.852Z,2.67
2019-03-09T19:04:21.144Z,2.37
2019-03-09T19:06:48.389Z,2.70
2019-03-09T19:09:15.667Z,1.93
2019-03-09T19:11:42.918Z,2.43
2019-03-09T19:14:10.204Z,2.83
2019-03-09T19:16:37.515Z,2.27
2019-03-09T19:19:04.772Z,2.80
2019-03-09T19:21:32.036Z,2.53
2019-03-09T19:23:59.401Z,2.00
2019-03-09T19:26:26.695Z,2.43
2019-03-09T19:28:53.944Z,2.40
2019-03-09T19:31:21.213Z,2.00
2019-03-09T19:33:48.637Z,2.60
2019-03-09T19:36:15.870Z,2.77
2019-03-09T19:38:43.193Z,2.00
2019-03-09T19:41:10.456Z,1.97
2019-03-09T19:43:37.702Z,2.37
2019-03-09T19:46:04.984Z,2.27
2019-03-09T19:48:32.239Z,2.00
2019-03-09T19:50:59.502Z,2.17
2019-03-09T19:53:26.751Z,2.73
2019-03-09T19:55:53.987Z,2.00
2019-03-09T19:58:21.200Z,2.33
2019-03-09T20:00:48.519Z,2.40
2019-03-09T20:03:15.762Z,2.13
2019-03-09T20:05:43.043Z,2.00
2019-03-09T20:08:10.322Z,2.23
2019-03-09T20:10:37.630Z,2.30
2019-03-09T20:13:07.250Z,2.20
2019-03-09T20:15:34.768Z,2.20
2019-03-09T20:18:02.096Z,2.60
2019-03-09T20:20:29.388Z,2.37
2019-03-09T20:22:56.629Z,3.30
2019-03-09T20:25:24.115Z,2.97
2019-03-09T20:27:51.373Z,3.60
2019-03-09T20:30:18.652Z,2.23
2019-03-09T20:32:47.296Z,2.67
2019-03-09T20:35:14.623Z,3.03
2019-03-09T20:37:41.936Z,3.20
2019-03-09T20:40:09.459Z,3.60
2019-03-09T20:42:37.285Z,4.67
2019-03-09T20:45:06.956Z,2.37
2019-03-09T20:47:34.407Z,1.87
2019-03-09T20:50:01.676Z,1.70
2019-03-09T20:52:29.002Z,2.83
2019-03-09T20:54:56.320Z,2.83
2019-03-09T20:57:23.552Z,2.40
2019-03-09T20:59:51.385Z,2.13
2019-03-09T21:05:57.294Z,2.73
2019-03-09T21:08:24.524Z,2.63
2019-03-09T21:10:51.782Z,2.63
2019-03-09T21:13:19.087Z,2.43
2019-03-09T21:15:46.303Z,2.27
2019-03-09T21:18:13.549Z,2.43
2019-03-09T21:20:40.852Z,2.87
2019-03-09T21:23:08.097Z,2.80
2019-03-09T21:25:35.463Z,2.37
2019-03-09T21:28:02.700Z,2.60
2019-03-09T21:30:29.941Z,2.23
2019-03-09T21:32:57.250Z,2.80
2019-03-09T21:35:24.502Z,2.20
2019-03-09T21:37:51.759Z,2.40
2019-03-09T21:40:19.043Z,2.63
2019-03-09T21:42:59.362Z,2.53
2019-03-09T21:45:26.614Z,2.80
2019-03-09T21:47:53.884Z,2.03
2019-03-09T21:50:21.210Z,2.23
2019-03-09T21:52:48.503Z,2.97
2019-03-09T21:55:15.756Z,3.13
2019-03-09T21:57:43.079Z,2.23
2019-03-09T22:00:11.608Z,3.00
2019-03-09T22:02:38.877Z,2.20
2019-03-09T22:05:08.195Z,2.50
2019-03-09T22:07:35.446Z,1.80
2019-03-09T22:10:02.776Z,2.70
2019-03-09T22:12:30.073Z,2.87
2019-03-09T22:14:57.322Z,2.30
2019-03-09T22:17:24.593Z,2.80
2019-03-09T22:19:51.866Z,2.20
2019-03-09T22:22:19.338Z,2.47
2019-03-09T22:24:46.601Z,3.43
2019-03-09T22:27:13.872Z,2.70
2019-03-09T22:29:41.110Z,2.30
2019-03-09T22:32:08.696Z,2.30
2019-03-09T22:34:35.936Z,2.50
2019-03-09T22:37:03.212Z,2.20
2019-03-09T22:39:30.477Z,2.17
2019-03-09T22:41:57.779Z,2.20
2019-03-09T22:44:25.092Z,2.50
2019-03-09T22:46:52.616Z,1.90
2019-03-09T22:49:19.859Z,2.37
2019-03-09T22:51:47.132Z,2.70
2019-03-09T22:54:14.394Z,2.37
2019-03-09T22:56:41.648Z,2.97
2019-03-09T22:59:08.920Z,2.63
2019-03-09T23:01:36.253Z,2.50
2019-03-09T23:04:03.510Z,2.40
2019-03-09T23:06:30.735Z,2.47
2019-03-09T23:08:58.006Z,2.10
2019-03-09T23:11:25.252Z,3.00
2019-03-09T23:13:52.560Z,2.33
2019-03-09T23:16:19.819Z,2.37
2019-03-09T23:18:47.113Z,3.07
2019-03-09T23:21:14.357Z,2.90
2019-03-09T23:23:41.603Z,2.27
2019-03-09T23:26:08.886Z,1.80
2019-03-09T23:28:48.556Z,2.57
2019-03-09T23:31:15.821Z,2.40
2019-03-09T23:33:43.097Z,2.43
2019-03-09T23:36:10.331Z,2.03
2019-03-09T23:38:37.773Z,2.40
2019-03-09T23:41:05.160Z,2.27
2019-03-09T23:43:32.469Z,2.40
2019-03-09T23:45:59.782Z,2.90
2019-03-09T23:48:27.059Z,2.27
2019-03-09T23:50:54.345Z,2.33
2019-03-09T23:53:21.618Z,2.60
2019-03-09T23:55:48.883Z,2.13
2019-03-09T23:58:16.163Z,2.60
